Time;durP1;ratioP1;P1;durP2;ratioP2;P2;SDS_P1;SDS_P2;PMS_P1;PMS_P2;Temp;Humidity;BMP_temperature;BMP_pressure;BME280_temperature;BME280_humidity;BME280_pressure;Samples;Min_cycle;Max_cycle;Signal;HPM_P1;HPM_P2
2023/03/14 00:00:31;;;;;;;0.82;0.60;;;;;;;;;;4970972;28;20188;-57
2023/03/14 00:02:57;;;;;;;0.60;0.60;;;;;;;;;;4973497;28;20035;-56
2023/03/14 00:05:22;;;;;;;2.05;0.75;;;;;;;;;;4970942;28;20795;-58
2023/03/14 00:07:47;;;;;;;0.60;0.60;;;;;;;;;;4971835;28;20076;-59
2023/03/14 00:10:14;;;;;;;0.70;0.63;;;;;;;;;;4973410;28;20084;-59
2023/03/14 00:12:41;;;;;;;1.85;1.13;;;;;;;;;;4972834;28;20071;-58
2023/03/14 00:15:07;;;;;;;0.77;0.77;;;;;;;;;;4970677;28;20042;-58
2023/03/14 00:17:34;;;;;;;1.17;0.80;;;;;;;;;;4972506;28;20049;-58
2023/03/14 00:20:07;;;;;;;0.60;0.60;;;;;;;;;;4971717;28;20066;-58
2023/03/14 00:22:34;;;;;;;0.47;0.47;;;;;;;;;;4969754;28;20496;-57
2023/03/14 00:24:59;;;;;;;0.85;0.47;;;;;;;;;;4972669;28;20491;-59
2023/03/14 00:27:25;;;;;;;0.50;0.50;;;;;;;;;;4972500;28;20029;-58
2023/03/14 00:29:50;;;;;;;0.65;0.57;;;;;;;;;;4973402;28;20026;-57
2023/03/14 00:32:16;;;;;;;0.40;0.40;;;;;;;;;;4972617;28;20038;-57
2023/03/14 00:34:41;;;;;;;0.40;0.40;;;;;;;;;;4972956;28;20023;-58
2023/03/14 00:37:07;;;;;;;0.60;0.60;;;;;;;;;;4973886;28;20106;-58
2023/03/14 00:39:32;;;;;;;1.20;0.50;;;;;;;;;;4973358;28;20018;-58
2023/03/14 00:41:58;;;;;;;1.10;0.38;;;;;;;;;;4973847;28;20035;-58
2023/03/14 00:44:23;;;;;;;0.40;0.40;;;;;;;;;;4973280;28;20068;-58
2023/03/14 00:46:48;;;;;;;1.40;0.65;;;;;;;;;;4971505;28;20082;-58
2023/03/14 00:49:14;;;;;;;0.52;0.30;;;;;;;;;;4973115;28;20035;-58
2023/03/14 00:51:40;;;;;;;0.47;0.47;;;;;;;;;;4972040;28;20019;-57
2023/03/14 00:54:05;;;;;;;0.47;0.47;;;;;;;;;;4972173;28;20039;-57
2023/03/14 00:56:31;;;;;;;0.30;0.30;;;;;;;;;;4971606;28;20058;-57
2023/03/14 00:58:56;;;;;;;0.40;0.40;;;;;;;;;;4972355;28;20106;-57
2023/03/14 01:01:22;;;;;;;1.10;0.50;;;;;;;;;;4970300;28;20034;-57
2023/03/14 01:03:51;;;;;;;0.50;0.50;;;;;;;;;;5002887;28;20090;-57
2023/03/14 01:06:22;;;;;;;0.50;0.50;;;;;;;;;;4969579;28;20027;-56
2023/03/14 01:08:48;;;;;;;0.40;0.40;;;;;;;;;;4971848;28;20294;-57
2023/03/14 01:11:32;;;;;;;0.60;0.40;;;;;;;;;;5002080;28;20027;-58
2023/03/14 01:13:57;;;;;;;0.50;0.50;;;;;;;;;;4972209;28;20026;-57
2023/03/14 01:16:24;;;;;;;0.40;0.40;;;;;;;;;;4971212;28;20022;-57
2023/03/14 01:18:50;;;;;;;0.60;0.50;;;;;;;;;;4972432;28;20413;-57
2023/03/14 01:21:22;;;;;;;0.50;0.50;;;;;;;;;;4971946;28;20022;-57
2023/03/14 01:23:48;;;;;;;0.40;0.40;;;;;;;;;;4969972;28;20023;-57
2023/03/14 01:26:18;;;;;;;0.40;0.40;;;;;;;;;;4974188;28;20031;-58
2023/03/14 01:28:44;;;;;;;0.40;0.40;;;;;;;;;;4971105;28;20073;-57
2023/03/14 01:31:10;;;;;;;0.32;0.32;;;;;;;;;;4971305;28;20035;-58
2023/03/14 01:33:36;;;;;;;0.40;0.40;;;;;;;;;;4972491;28;20022;-58
2023/03/14 01:36:02;;;;;;;0.50;0.40;;;;;;;;;;4971301;28;20031;-58
2023/03/14 01:38:35;;;;;;;0.43;0.43;;;;;;;;;;4972862;28;20023;-58
2023/03/14 01:41:01;;;;;;;0.68;0.38;;;;;;;;;;4969826;28;20104;-58
2023/03/14 01:43:27;;;;;;;0.28;0.28;;;;;;;;;;4972212;28;20038;-58
2023/03/14 01:46:05;;;;;;;0.63;0.30;;;;;;;;;;4971798;28;20105;-58
2023/03/14 01:48:48;;;;;;;1.88;0.60;;;;;;;;;;4972319;28;20068;-58
2023/03/14 01:51:20;;;;;;;0.30;0.30;;;;;;;;;;4969823;28;20138;-58
2023/03/14 01:53:49;;;;;;;0.40;0.40;;;;;;;;;;4969958;28;20039;-58
2023/03/14 01:56:17;;;;;;;1.08;0.50;;;;;;;;;;4970553;28;20065;-58
2023/03/14 01:58:47;;;;;;;0.52;0.30;;;;;;;;;;4972698;28;20051;-58
2023/03/14 02:01:16;;;;;;;0.57;0.55;;;;;;;;;;4972174;28;20058;-58
2023/03/14 02:03:50;;;;;;;1.02;0.40;;;;;;;;;;4968778;28;20369;-58
2023/03/14 02:06:19;;;;;;;0.40;0.40;;;;;;;;;;4971204;28;20039;-57
2023/03/14 02:08:48;;;;;;;0.50;0.50;;;;;;;;;;4970997;28;20445;-58
2023/03/14 02:11:13;;;;;;;0.95;0.70;;;;;;;;;;4970964;28;20401;-58
2023/03/14 02:13:39;;;;;;;0.70;0.70;;;;;;;;;;4970872;28;20077;-58
2023/03/14 02:16:05;;;;;;;1.15;0.60;;;;;;;;;;4971493;28;20026;-58
2023/03/14 02:18:30;;;;;;;1.85;0.50;;;;;;;;;;4970449;28;20512;-58
2023/03/14 02:21:37;;;;;;;1.88;0.50;;;;;;;;;;4970472;28;20023;-57
2023/03/14 02:24:36;;;;;;;0.60;0.60;;;;;;;;;;4971309;28;20155;-58
2023/03/14 02:27:14;;;;;;;2.22;0.50;;;;;;;;;;4971173;28;20496;-58
2023/03/14 02:30:05;;;;;;;0.40;0.40;;;;;;;;;;4970546;28;20157;-58
2023/03/14 02:32:33;;;;;;;1.27;0.50;;;;;;;;;;4970928;28;20049;-59
2023/03/14 02:35:02;;;;;;;0.98;0.50;;;;;;;;;;4973064;28;20035;-59
2023/03/14 02:37:40;;;;;;;0.80;0.80;;;;;;;;;;4972255;28;20026;-58
2023/03/14 02:40:07;;;;;;;0.40;0.40;;;;;;;;;;4969727;28;20026;-58
2023/03/14 02:42:32;;;;;;;0.90;0.40;;;;;;;;;;4972043;28;20034;-58
2023/03/14 02:45:17;;;;;;;0.30;0.30;;;;;;;;;;4970624;28;20046;-58
2023/03/14 02:47:49;;;;;;;1.17;0.52;;;;;;;;;;4969354;28;20477;-58
2023/03/14 02:50:18;;;;;;;0.52;0.50;;;;;;;;;;4970657;28;20411;-58
2023/03/14 02:52:43;;;;;;;0.50;0.50;;;;;;;;;;4971478;28;20094;-58
2023/03/14 02:55:09;;;;;;;0.50;0.50;;;;;;;;;;4970327;28;20054;-58
2023/03/14 02:57:35;;;;;;;0.93;0.50;;;;;;;;;;4969900;28;20025;-57
2023/03/14 03:00:03;;;;;;;0.40;0.40;;;;;;;;;;4969133;28;20034;-57
2023/03/14 03:02:29;;;;;;;0.57;0.57;;;;;;;;;;4969831;28;20491;-58
2023/03/14 03:04:54;;;;;;;0.73;0.40;;;;;;;;;;4969365;28;20046;-58
2023/03/14 03:07:20;;;;;;;1.17;0.60;;;;;;;;;;4969588;28;20104;-58
2023/03/14 03:09:46;;;;;;;0.50;0.50;;;;;;;;;;4969184;28;20030;-58
2023/03/14 03:12:11;;;;;;;1.15;0.57;;;;;;;;;;4969581;28;20084;-58
2023/03/14 03:14:37;;;;;;;2.88;0.75;;;;;;;;;;4969935;28;20054;-58
2023/03/14 03:17:06;;;;;;;0.60;0.60;;;;;;;;;;4969369;28;20051;-58
2023/03/14 03:19:33;;;;;;;0.68;0.68;;;;;;;;;;4969408;28;20690;-58
2023/03/14 03:21:59;;;;;;;2.03;0.57;;;;;;;;;;4969387;28;20073;-57
2023/03/14 03:24:25;;;;;;;1.17;0.40;;;;;;;;;;4970172;28;20045;-58
2023/03/14 03:26:51;;;;;;;0.68;0.68;;;;;;;;;;4970964;28;20023;-58
2023/03/14 03:29:16;;;;;;;0.55;0.55;;;;;;;;;;4968632;28;20041;-58
2023/03/14 03:31:41;;;;;;;0.50;0.40;;;;;;;;;;4969958;28;20078;-58
2023/03/14 03:34:07;;;;;;;0.85;0.60;;;;;;;;;;4969584;28;20105;-58
2023/03/14 03:36:33;;;;;;;1.15;0.55;;;;;;;;;;4970106;28;20046;-58
2023/03/14 03:38:59;;;;;;;1.88;0.70;;;;;;;;;;4969962;28;20031;-57
2023/03/14 03:41:24;;;;;;;2.03;0.55;;;;;;;;;;4970164;28;20401;-57
2023/03/14 03:43:49;;;;;;;2.00;0.60;;;;;;;;;;4971624;28;20487;-58
2023/03/14 03:46:15;;;;;;;1.58;0.40;;;;;;;;;;4968907;28;20396;-58
2023/03/14 03:48:40;;;;;;;1.70;0.50;;;;;;;;;;4970211;28;20489;-58
2023/03/14 03:51:06;;;;;;;0.63;0.63;;;;;;;;;;4967763;28;20022;-58
2023/03/14 03:53:31;;;;;;;2.42;0.73;;;;;;;;;;4970075;28;20493;-58
2023/03/14 03:55:57;;;;;;;1.85;0.68;;;;;;;;;;4970687;28;20400;-58
2023/03/14 03:58:22;;;;;;;2.55;0.80;;;;;;;;;;4969327;28;20113;-58
2023/03/14 04:00:48;;;;;;;5.47;0.80;;;;;;;;;;4969941;28;20027;-58
2023/03/14 04:03:13;;;;;;;1.85;0.75;;;;;;;;;;4969893;28;20513;-58
2023/03/14 04:05:38;;;;;;;1.35;0.80;;;;;;;;;;4968573;28;20045;-58
2023/03/14 04:08:04;;;;;;;1.52;0.68;;;;;;;;;;4969365;28;20046;-58
2023/03/14 04:10:30;;;;;;;2.30;0.70;;;;;;;;;;4967995;28;20652;-57
2023/03/14 04:12:55;;;;;;;2.60;0.60;;;;;;;;;;4970465;28;20500;-58
2023/03/14 04:15:20;;;;;;;0.88;0.60;;;;;;;;;;4969402;28;20504;-58
2023/03/14 04:17:46;;;;;;;1.50;0.80;;;;;;;;;;4970312;28;20111;-57
2023/03/14 04:20:12;;;;;;;1.70;0.70;;;;;;;;;;4967327;28;20122;-59
2023/03/14 04:22:40;;;;;;;4.55;0.70;;;;;;;;;;4968174;28;20061;-58
2023/03/14 04:25:07;;;;;;;4.70;0.70;;;;;;;;;;4971600;28;20035;-58
2023/03/14 04:27:32;;;;;;;3.45;0.77;;;;;;;;;;4970430;28;20183;-59
2023/03/14 04:29:57;;;;;;;3.65;0.63;;;;;;;;;;4968536;28;20550;-58
2023/03/14 04:32:23;;;;;;;1.17;0.65;;;;;;;;;;4968917;28;20019;-58
2023/03/14 04:34:48;;;;;;;1.10;0.50;;;;;;;;;;4971375;28;20146;-57
2023/03/14 04:37:14;;;;;;;1.70;0.75;;;;;;;;;;4969987;28;20039;-58
2023/03/14 04:39:39;;;;;;;2.28;0.70;;;;;;;;;;4967132;28;20106;-58
2023/03/14 04:42:05;;;;;;;3.33;0.82;;;;;;;;;;4972641;28;20405;-58
2023/03/14 04:44:31;;;;;;;4.07;0.70;;;;;;;;;;4972393;28;20022;-58
2023/03/14 04:46:56;;;;;;;2.05;0.60;;;;;;;;;;4971998;28;20034;-58
2023/03/14 04:49:22;;;;;;;4.50;0.70;;;;;;;;;;4971708;28;20404;-58
2023/03/14 04:51:47;;;;;;;1.92;0.77;;;;;;;;;;4971131;28;20034;-58
2023/03/14 04:54:13;;;;;;;2.30;0.60;;;;;;;;;;4971374;28;20035;-57
2023/03/14 04:56:38;;;;;;;1.98;0.70;;;;;;;;;;4973908;28;20133;-58
2023/03/14 04:59:04;;;;;;;1.08;0.60;;;;;;;;;;4972103;28;20029;-58
2023/03/14 05:01:29;;;;;;;3.58;0.80;;;;;;;;;;4970167;28;20029;-58
2023/03/14 05:03:55;;;;;;;4.72;0.73;;;;;;;;;;4971555;28;20035;-58
2023/03/14 05:06:20;;;;;;;3.13;0.77;;;;;;;;;;4971286;28;20034;-58
2023/03/14 05:08:45;;;;;;;1.50;0.50;;;;;;;;;;4970108;28;20030;-56
2023/03/14 05:11:12;;;;;;;2.42;0.60;;;;;;;;;;4970093;28;20042;-58
2023/03/14 05:13:38;;;;;;;0.90;0.35;;;;;;;;;;4971738;28;20027;-58
2023/03/14 05:16:08;;;;;;;0.88;0.38;;;;;;;;;;4973145;28;20034;-58
2023/03/14 05:18:34;;;;;;;1.65;0.60;;;;;;;;;;4973156;28;20029;-57
2023/03/14 05:20:59;;;;;;;1.23;0.55;;;;;;;;;;4972930;28;20047;-58
2023/03/14 05:23:24;;;;;;;3.28;1.02;;;;;;;;;;4970261;28;20035;-58
2023/03/14 05:25:50;;;;;;;3.72;1.20;;;;;;;;;;4973001;28;20026;-59
2023/03/14 05:28:15;;;;;;;3.75;0.90;;;;;;;;;;4972650;28;20109;-58
2023/03/14 05:30:41;;;;;;;5.82;2.40;;;;;;;;;;4972065;28;20038;-58
2023/03/14 05:33:06;;;;;;;2.22;0.85;;;;;;;;;;4973288;28;20632;-58
2023/03/14 05:35:31;;;;;;;3.72;0.93;;;;;;;;;;4972428;28;20517;-59
2023/03/14 05:37:57;;;;;;;2.03;1.45;;;;;;;;;;4970406;28;20024;-58
2023/03/14 05:40:22;;;;;;;1.50;0.40;;;;;;;;;;4970747;28;20030;-58
2023/03/14 05:42:48;;;;;;;1.85;0.60;;;;;;;;;;4972144;28;20027;-58
2023/03/14 05:45:13;;;;;;;2.30;0.50;;;;;;;;;;4971602;28;20398;-58
2023/03/14 05:47:39;;;;;;;2.70;0.50;;;;;;;;;;4972917;28;20141;-57
2023/03/14 05:50:07;;;;;;;2.70;1.27;;;;;;;;;;4967511;28;20038;-58
2023/03/14 05:52:33;;;;;;;7.47;1.20;;;;;;;;;;4969463;28;20669;-55
2023/03/14 05:54:58;;;;;;;8.00;1.60;;;;;;;;;;4970653;28;20046;-57
2023/03/14 05:57:23;;;;;;;1.70;0.80;;;;;;;;;;4970527;28;20022;-57
2023/03/14 05:59:49;;;;;;;1.27;0.40;;;;;;;;;;4969747;28;20077;-56
2023/03/14 06:02:14;;;;;;;1.85;0.45;;;;;;;;;;4970622;28;20117;-58
2023/03/14 06:04:40;;;;;;;2.30;0.68;;;;;;;;;;4969833;28;20026;-56
2023/03/14 06:07:05;;;;;;;1.30;0.88;;;;;;;;;;4969579;28;20026;-56
2023/03/14 06:09:30;;;;;;;1.50;0.77;;;;;;;;;;4968145;28;20062;-56
2023/03/14 06:11:56;;;;;;;4.32;1.00;;;;;;;;;;4969200;28;20122;-57
2023/03/14 06:14:21;;;;;;;2.78;0.73;;;;;;;;;;4971619;28;20113;-57
2023/03/14 06:16:50;;;;;;;2.15;0.63;;;;;;;;;;4970795;28;20026;-57
2023/03/14 06:19:15;;;;;;;3.17;0.90;;;;;;;;;;4971554;28;20056;-56
2023/03/14 06:21:41;;;;;;;0.45;0.45;;;;;;;;;;5003616;28;20037;-57
2023/03/14 06:24:06;;;;;;;1.95;0.60;;;;;;;;;;4972029;28;20071;-56
2023/03/14 06:26:32;;;;;;;1.83;0.60;;;;;;;;;;4971340;28;20081;-56
2023/03/14 06:29:01;;;;;;;4.13;0.90;;;;;;;;;;4970092;28;20053;-56
2023/03/14 06:31:26;;;;;;;2.25;0.90;;;;;;;;;;4970632;28;20146;-56
2023/03/14 06:33:51;;;;;;;1.27;0.90;;;;;;;;;;4970618;28;20129;-58
2023/03/14 06:36:17;;;;;;;2.60;0.50;;;;;;;;;;4970358;28;20382;-57
2023/03/14 06:38:42;;;;;;;0.80;0.40;;;;;;;;;;4972260;28;20033;-57
2023/03/14 06:41:08;;;;;;;0.68;0.60;;;;;;;;;;4971538;28;20046;-58
2023/03/14 06:43:33;;;;;;;1.35;0.68;;;;;;;;;;4971889;28;20030;-58
2023/03/14 06:45:59;;;;;;;1.75;0.50;;;;;;;;;;4970625;28;20035;-57
2023/03/14 06:48:26;;;;;;;0.68;0.65;;;;;;;;;;4970258;28;20114;-57
2023/03/14 06:50:51;;;;;;;2.72;0.85;;;;;;;;;;4969412;28;20041;-57
2023/03/14 06:53:17;;;;;;;1.77;0.80;;;;;;;;;;4971080;28;20389;-55
2023/03/14 06:55:43;;;;;;;0.82;0.75;;;;;;;;;;4970248;28;20034;-56
2023/03/14 06:58:08;;;;;;;5.18;0.75;;;;;;;;;;4969302;28;20488;-56
2023/03/14 07:00:34;;;;;;;1.67;0.43;;;;;;;;;;4965948;28;20086;-57
2023/03/14 07:03:00;;;;;;;2.38;0.75;;;;;;;;;;4969839;28;20026;-57
2023/03/14 07:05:25;;;;;;;2.10;1.20;;;;;;;;;;4969170;28;20408;-56
2023/03/14 07:07:50;;;;;;;0.70;0.60;;;;;;;;;;4970455;28;20121;-56
2023/03/14 07:10:16;;;;;;;1.88;0.80;;;;;;;;;;4971260;28;20492;-56
2023/03/14 07:12:41;;;;;;;1.80;0.45;;;;;;;;;;4970765;28;20029;-56
2023/03/14 07:15:08;;;;;;;1.60;0.70;;;;;;;;;;4969211;28;20617;-57
2023/03/14 07:17:33;;;;;;;0.40;0.40;;;;;;;;;;4970418;28;20422;-57
2023/03/14 07:19:59;;;;;;;2.22;0.98;;;;;;;;;;4970875;28;20081;-57
2023/03/14 07:22:24;;;;;;;0.88;0.50;;;;;;;;;;4969884;28;20075;-57
2023/03/14 07:24:50;;;;;;;1.90;0.90;;;;;;;;;;4971515;28;20084;-56
2023/03/14 07:27:15;;;;;;;0.75;0.68;;;;;;;;;;4969564;28;20277;-56
2023/03/14 07:29:40;;;;;;;1.38;0.50;;;;;;;;;;4968648;28;20153;-57
2023/03/14 07:32:06;;;;;;;0.63;0.60;;;;;;;;;;4970142;28;20416;-57
2023/03/14 07:34:31;;;;;;;1.98;0.60;;;;;;;;;;4969896;28;20066;-56
2023/03/14 07:36:58;;;;;;;2.20;0.80;;;;;;;;;;4969691;28;20039;-57
2023/03/14 07:39:24;;;;;;;1.13;0.60;;;;;;;;;;4968551;28;20198;-56
2023/03/14 07:41:50;;;;;;;1.02;0.60;;;;;;;;;;4969640;28;20030;-57
2023/03/14 07:44:15;;;;;;;2.58;0.60;;;;;;;;;;4969430;28;20047;-57
2023/03/14 07:46:41;;;;;;;1.75;0.70;;;;;;;;;;4971275;28;20401;-57
2023/03/14 07:49:06;;;;;;;0.80;0.60;;;;;;;;;;4969288;28;20030;-56
2023/03/14 07:51:31;;;;;;;1.55;0.95;;;;;;;;;;4967914;28;20030;-56
2023/03/14 07:53:57;;;;;;;3.28;1.20;;;;;;;;;;4969427;28;20019;-57
2023/03/14 07:56:23;;;;;;;2.97;1.30;;;;;;;;;;4969083;28;20058;-57
2023/03/14 07:58:48;;;;;;;2.80;0.80;;;;;;;;;;4968550;28;20027;-57
2023/03/14 08:01:14;;;;;;;1.33;0.90;;;;;;;;;;4966176;28;20026;-58
2023/03/14 08:03:39;;;;;;;1.50;0.70;;;;;;;;;;4969372;28;20030;-57
2023/03/14 08:06:05;;;;;;;1.40;0.60;;;;;;;;;;4968634;28;20038;-57
2023/03/14 08:08:31;;;;;;;1.00;0.60;;;;;;;;;;4961854;28;20034;-57
2023/03/14 08:11:03;;;;;;;0.70;0.50;;;;;;;;;;4967109;28;20401;-57
2023/03/14 08:13:28;;;;;;;1.30;0.60;;;;;;;;;;4969419;28;20023;-57
2023/03/14 08:15:53;;;;;;;2.22;0.60;;;;;;;;;;4968473;28;20053;-57
2023/03/14 08:18:19;;;;;;;1.90;0.80;;;;;;;;;;4972300;28;20591;-57
2023/03/14 08:20:44;;;;;;;1.90;0.80;;;;;;;;;;4969265;28;20147;-57
2023/03/14 08:23:10;;;;;;;2.03;0.80;;;;;;;;;;4971783;28;20039;-57
2023/03/14 08:25:37;;;;;;;1.75;0.70;;;;;;;;;;4972180;28;20042;-57
2023/03/14 08:28:02;;;;;;;3.40;0.82;;;;;;;;;;4971347;28;20606;-57
2023/03/14 08:30:29;;;;;;;2.75;0.77;;;;;;;;;;4970634;28;20098;-57
2023/03/14 08:32:56;;;;;;;1.17;0.80;;;;;;;;;;4969733;28;20664;-56
2023/03/14 08:35:21;;;;;;;2.47;0.98;;;;;;;;;;4971303;28;20510;-56
2023/03/14 08:37:47;;;;;;;1.02;0.60;;;;;;;;;;5001798;28;20058;-58
2023/03/14 08:40:13;;;;;;;1.35;0.75;;;;;;;;;;5001392;28;20416;-57
2023/03/14 08:42:39;;;;;;;1.08;0.90;;;;;;;;;;4972067;28;20029;-58
2023/03/14 08:45:06;;;;;;;1.52;0.63;;;;;;;;;;4964656;28;20399;-57
2023/03/14 08:47:32;;;;;;;0.70;0.70;;;;;;;;;;4970974;28;20046;-57
2023/03/14 08:49:57;;;;;;;0.80;0.70;;;;;;;;;;4970411;28;20085;-59
2023/03/14 08:52:22;;;;;;;3.15;0.88;;;;;;;;;;4971895;28;20061;-55
2023/03/14 08:54:48;;;;;;;2.10;0.98;;;;;;;;;;4971220;28;20034;-56
2023/03/14 08:57:13;;;;;;;1.27;0.65;;;;;;;;;;4973090;28;20403;-58
2023/03/14 08:59:39;;;;;;;1.30;0.65;;;;;;;;;;4970593;28;20041;-56
2023/03/14 09:02:05;;;;;;;1.35;0.80;;;;;;;;;;4971840;28;20034;-56
2023/03/14 09:04:31;;;;;;;2.10;0.70;;;;;;;;;;4971832;28;20403;-56
2023/03/14 09:06:57;;;;;;;0.50;0.50;;;;;;;;;;4972249;28;20066;-56
2023/03/14 09:09:24;;;;;;;1.15;0.70;;;;;;;;;;4969888;28;20047;-56
2023/03/14 09:11:50;;;;;;;1.08;0.70;;;;;;;;;;4972057;28;20030;-57
2023/03/14 09:14:15;;;;;;;0.93;0.70;;;;;;;;;;4970479;28;20069;-57
2023/03/14 09:16:41;;;;;;;2.05;0.80;;;;;;;;;;4970756;28;20031;-57
2023/03/14 09:19:06;;;;;;;1.98;1.05;;;;;;;;;;4969815;28;20037;-57
2023/03/14 09:21:32;;;;;;;1.95;0.88;;;;;;;;;;4969332;28;20034;-57
2023/03/14 09:23:57;;;;;;;0.93;0.60;;;;;;;;;;4969714;28;20027;-57
2023/03/14 09:26:22;;;;;;;1.23;0.70;;;;;;;;;;4968752;28;20092;-57
2023/03/14 09:28:48;;;;;;;0.75;0.68;;;;;;;;;;4970835;28;20105;-57
2023/03/14 09:31:14;;;;;;;1.55;0.70;;;;;;;;;;4970303;28;20059;-56
2023/03/14 09:33:40;;;;;;;5.03;2.00;;;;;;;;;;4972090;28;20488;-57
2023/03/14 09:36:07;;;;;;;2.10;0.60;;;;;;;;;;4971217;28;20109;-57
2023/03/14 09:38:32;;;;;;;0.70;0.60;;;;;;;;;;4970977;28;20378;-56
2023/03/14 09:41:00;;;;;;;1.08;0.70;;;;;;;;;;4972391;28;20029;-56
2023/03/14 09:43:29;;;;;;;1.15;0.68;;;;;;;;;;4970378;28;20035;-57
2023/03/14 09:45:56;;;;;;;2.05;0.90;;;;;;;;;;4970562;28;20034;-57
2023/03/14 09:48:27;;;;;;;0.70;0.70;;;;;;;;;;4969735;28;20034;-57
2023/03/14 09:50:55;;;;;;;1.48;0.82;;;;;;;;;;4968548;28;20034;-57
2023/03/14 09:53:28;;;;;;;0.50;0.50;;;;;;;;;;4970888;28;20034;-57
2023/03/14 09:55:55;;;;;;;0.80;0.80;;;;;;;;;;4970149;28;20086;-57
2023/03/14 09:58:23;;;;;;;1.40;0.60;;;;;;;;;;4964157;28;20033;-57
2023/03/14 10:00:54;;;;;;;0.50;0.50;;;;;;;;;;4967105;28;20041;-57
2023/03/14 10:03:24;;;;;;;1.95;0.70;;;;;;;;;;4966679;28;20118;-57
2023/03/14 10:05:50;;;;;;;1.30;0.60;;;;;;;;;;4968723;28;20035;-57
2023/03/14 10:08:15;;;;;;;0.80;0.57;;;;;;;;;;4969926;28;20053;-57
2023/03/14 10:10:41;;;;;;;0.60;0.60;;;;;;;;;;4969978;28;20030;-57
2023/03/14 10:13:09;;;;;;;0.50;0.50;;;;;;;;;;4970605;28;20528;-57
2023/03/14 10:15:36;;;;;;;0.85;0.60;;;;;;;;;;4969262;28;20073;-57
2023/03/14 10:18:04;;;;;;;1.08;0.45;;;;;;;;;;4967441;28;20453;-58
2023/03/14 10:20:38;;;;;;;1.75;0.70;;;;;;;;;;4968061;28;20100;-58
2023/03/14 10:23:28;;;;;;;2.05;0.60;;;;;;;;;;4969295;28;20034;-58
2023/03/14 10:26:06;;;;;;;2.33;0.98;;;;;;;;;;4967997;28;20030;-58
2023/03/14 10:28:44;;;;;;;1.55;0.80;;;;;;;;;;4966737;28;20030;-58
2023/03/14 10:31:09;;;;;;;1.50;1.40;;;;;;;;;;4965806;28;20030;-57
2023/03/14 10:33:37;;;;;;;0.80;0.80;;;;;;;;;;4968499;28;20085;-57
2023/03/14 10:36:15;;;;;;;2.58;1.45;;;;;;;;;;4966507;28;20052;-58
2023/03/14 10:38:40;;;;;;;0.75;0.70;;;;;;;;;;4968046;28;20103;-57
2023/03/14 10:41:27;;;;;;;0.50;0.50;;;;;;;;;;4967299;28;20042;-53
2023/03/14 10:44:00;;;;;;;1.42;1.17;;;;;;;;;;4967084;28;20043;-57
2023/03/14 10:46:30;;;;;;;1.13;0.82;;;;;;;;;;4968499;28;20039;-58
2023/03/14 10:48:56;;;;;;;1.35;0.90;;;;;;;;;;4968551;28;20117;-57
2023/03/14 10:51:30;;;;;;;5.40;1.90;;;;;;;;;;4966887;28;20109;-57
2023/03/14 10:53:57;;;;;;;1.13;0.60;;;;;;;;;;4967155;28;20030;-57
2023/03/14 10:56:24;;;;;;;1.35;0.60;;;;;;;;;;4968465;28;20023;-57
2023/03/14 10:58:56;;;;;;;1.13;0.90;;;;;;;;;;4969348;28;20031;-57
2023/03/14 11:02:03;;;;;;;0.68;0.68;;;;;;;;;;4967472;28;20046;-56
2023/03/14 11:05:08;;;;;;;1.23;0.60;;;;;;;;;;4967151;28;20141;-57
2023/03/14 11:07:41;;;;;;;0.88;0.70;;;;;;;;;;4969084;28;20052;-57
2023/03/14 11:10:37;;;;;;;0.98;0.70;;;;;;;;;;4969333;28;20105;-57
2023/03/14 11:13:06;;;;;;;1.10;0.80;;;;;;;;;;4967886;28;20035;-56
2023/03/14 11:15:34;;;;;;;0.80;0.70;;;;;;;;;;4965643;28;20401;-56
2023/03/14 11:18:38;;;;;;;1.10;1.00;;;;;;;;;;4967147;28;20035;-57
2023/03/14 11:21:08;;;;;;;0.82;0.82;;;;;;;;;;4963326;28;20042;-57
2023/03/14 11:23:42;;;;;;;1.35;1.25;;;;;;;;;;4969953;28;20428;-54
2023/03/14 11:26:38;;;;;;;1.17;0.98;;;;;;;;;;4964989;28;20451;-56
2023/03/14 11:29:33;;;;;;;1.00;1.00;;;;;;;;;;4966578;28;20042;-56
2023/03/14 11:32:02;;;;;;;0.80;0.80;;;;;;;;;;4971060;28;20461;-57
2023/03/14 11:34:49;;;;;;;1.90;0.90;;;;;;;;;;4969794;28;20033;-56
2023/03/14 11:37:34;;;;;;;2.35;1.00;;;;;;;;;;4970493;28;20042;-57
2023/03/14 11:40:17;;;;;;;0.80;0.80;;;;;;;;;;4966882;28;20042;-57
2023/03/14 11:42:47;;;;;;;2.10;1.30;;;;;;;;;;4965862;28;20038;-57
2023/03/14 11:45:21;;;;;;;;;;;;;;;;;;4969151;28;20027;-56
2023/03/14 11:48:07;;;;;;;0.93;0.93;;;;;;;;;;4967017;28;20549;-58
2023/03/14 11:50:35;;;;;;;1.30;1.20;;;;;;;;;;4970613;28;20687;-56
2023/03/14 11:53:41;;;;;;;1.20;1.10;;;;;;;;;;4971320;28;20085;-57
2023/03/14 11:56:56;;;;;;;1.05;0.95;;;;;;;;;;4962868;28;20070;-56
2023/03/14 11:59:27;;;;;;;0.77;0.77;;;;;;;;;;4967555;28;20038;-56
2023/03/14 12:02:09;;;;;;;0.88;0.88;;;;;;;;;;4971603;28;20030;-56
2023/03/14 12:04:43;;;;;;;1.10;1.00;;;;;;;;;;4973871;28;20026;-57
2023/03/14 12:07:19;;;;;;;1.05;0.90;;;;;;;;;;4974858;28;20042;-57
2023/03/14 12:09:47;;;;;;;0.82;0.82;;;;;;;;;;4969650;28;20031;-56
2023/03/14 12:12:18;;;;;;;1.88;1.58;;;;;;;;;;4974102;28;20035;-57
2023/03/14 12:14:51;;;;;;;1.40;1.10;;;;;;;;;;4971126;28;20077;-57
2023/03/14 12:17:26;;;;;;;1.52;1.15;;;;;;;;;;4970903;28;20030;-57
2023/03/14 12:20:14;;;;;;;1.63;0.80;;;;;;;;;;4971407;28;20037;-55
2023/03/14 12:22:49;;;;;;;2.55;0.98;;;;;;;;;;4971896;28;20093;-57
2023/03/14 12:25:21;;;;;;;1.08;0.90;;;;;;;;;;4970347;28;20432;-56
2023/03/14 12:27:54;;;;;;;1.55;1.45;;;;;;;;;;4974940;28;20053;-57
2023/03/14 12:30:37;;;;;;;6.32;3.67;;;;;;;;;;4972097;28;20062;-56
2023/03/14 12:33:17;;;;;;;5.18;3.10;;;;;;;;;;4972208;28;20082;-57
2023/03/14 12:35:49;;;;;;;4.13;2.60;;;;;;;;;;4968708;28;20027;-57
2023/03/14 12:38:37;;;;;;;5.15;2.50;;;;;;;;;;4962183;28;20035;-57
2023/03/14 12:41:14;;;;;;;1.00;0.90;;;;;;;;;;4968901;28;20030;-56
2023/03/14 12:43:40;;;;;;;1.33;1.23;;;;;;;;;;4976695;28;20507;-56
2023/03/14 12:46:26;;;;;;;2.50;1.65;;;;;;;;;;5003098;28;20023;-56
2023/03/14 12:49:00;;;;;;;9.73;5.03;;;;;;;;;;4971529;28;20023;-56
2023/03/14 12:51:39;;;;;;;2.42;1.98;;;;;;;;;;4973043;28;20035;-56
2023/03/14 12:54:20;;;;;;;1.35;1.15;;;;;;;;;;4966591;28;20082;-57
2023/03/14 12:57:22;;;;;;;2.22;1.30;;;;;;;;;;4971268;28;20038;-57
2023/03/14 12:59:55;;;;;;;2.08;1.55;;;;;;;;;;4969153;28;20022;-57
2023/03/14 13:02:37;;;;;;;2.28;1.38;;;;;;;;;;4970790;28;20035;-56
2023/03/14 13:05:10;;;;;;;1.27;1.10;;;;;;;;;;4968696;28;20479;-57
2023/03/14 13:07:48;;;;;;;1.63;1.50;;;;;;;;;;4969430;28;20046;-57
2023/03/14 13:10:24;;;;;;;2.00;1.52;;;;;;;;;;4972161;28;20530;-57
2023/03/14 13:13:03;;;;;;;1.35;1.10;;;;;;;;;;4970597;28;20038;-55
2023/03/14 13:15:44;;;;;;;4.30;2.22;;;;;;;;;;4972892;28;20029;-56
2023/03/14 13:18:11;;;;;;;3.42;1.20;;;;;;;;;;4972453;28;20041;-56
2023/03/14 13:20:55;;;;;;;1.50;1.10;;;;;;;;;;4970278;28;20027;-56
2023/03/14 13:23:33;;;;;;;1.67;1.10;;;;;;;;;;4969085;28;20433;-57
2023/03/14 13:26:00;;;;;;;1.52;1.30;;;;;;;;;;4969381;28;20061;-56
2023/03/14 13:28:26;;;;;;;5.50;1.80;;;;;;;;;;4971243;28;20515;-57
2023/03/14 13:30:57;;;;;;;7.90;3.05;;;;;;;;;;4969567;28;20436;-56
2023/03/14 13:33:23;;;;;;;3.40;1.38;;;;;;;;;;4969607;28;20041;-58
2023/03/14 13:35:59;;;;;;;2.55;1.10;;;;;;;;;;4970868;28;20046;-60
2023/03/14 13:38:27;;;;;;;1.65;0.90;;;;;;;;;;4971360;28;20488;-58
2023/03/14 13:41:04;;;;;;;1.50;0.70;;;;;;;;;;4969763;28;20097;-58
2023/03/14 13:43:41;;;;;;;3.03;1.02;;;;;;;;;;4970240;28;20114;-57
2023/03/14 13:46:14;;;;;;;2.15;0.90;;;;;;;;;;4967712;28;20020;-58
2023/03/14 13:48:51;;;;;;;3.03;0.90;;;;;;;;;;4967086;28;20031;-56
2023/03/14 13:51:19;;;;;;;1.50;1.10;;;;;;;;;;4966255;28;20030;-56
2023/03/14 13:53:52;;;;;;;1.10;0.85;;;;;;;;;;4966737;28;20038;-58
2023/03/14 13:56:19;;;;;;;1.35;0.90;;;;;;;;;;4968410;28;20511;-57
2023/03/14 13:58:46;;;;;;;2.63;0.93;;;;;;;;;;4996103;28;20019;-56
2023/03/14 14:01:22;;;;;;;1.35;0.95;;;;;;;;;;4969429;28;20031;-57
2023/03/14 14:03:50;;;;;;;1.85;0.95;;;;;;;;;;4965972;28;20027;-56
2023/03/14 14:06:30;;;;;;;3.50;1.30;;;;;;;;;;4969011;28;20085;-64
2023/03/14 14:08:56;;;;;;;;;;;;;;;;;;4970261;28;20078;-63
2023/03/14 14:11:43;;;;;;;1.33;0.80;;;;;;;;;;4970826;28;19917;-64
2023/03/14 14:14:23;;;;;;;2.17;1.00;;;;;;;;;;4970617;28;20037;-65
2023/03/14 14:16:50;;;;;;;3.25;2.00;;;;;;;;;;4972930;28;20054;-66
2023/03/14 14:19:18;;;;;;;7.35;1.92;;;;;;;;;;4976950;28;20038;-63
2023/03/14 14:21:45;;;;;;;5.53;1.95;;;;;;;;;;4951364;28;20062;-64
2023/03/14 14:24:15;;;;;;;2.35;1.15;;;;;;;;;;4970055;28;20043;-63
2023/03/14 14:26:51;;;;;;;1.65;1.48;;;;;;;;;;4969517;28;20034;-63
2023/03/14 14:29:35;;;;;;;2.75;1.63;;;;;;;;;;4973485;28;20108;-65
2023/03/14 14:32:13;;;;;;;4.32;1.45;;;;;;;;;;4966734;28;20041;-66
2023/03/14 14:35:06;;;;;;;2.42;1.25;;;;;;;;;;5035801;28;20404;-64
2023/03/14 14:37:34;;;;;;;2.17;0.98;;;;;;;;;;5025497;28;20033;-64
2023/03/14 14:40:29;;;;;;;4.30;1.20;;;;;;;;;;5023977;28;20022;-62
2023/03/14 14:43:02;;;;;;;3.05;1.60;;;;;;;;;;5021876;28;20141;-63
2023/03/14 14:45:28;;;;;;;2.65;1.10;;;;;;;;;;5024461;28;20025;-63
2023/03/14 14:48:11;;;;;;;1.42;0.95;;;;;;;;;;5024284;28;20113;-64
2023/03/14 14:50:38;;;;;;;4.05;1.60;;;;;;;;;;5024068;28;20112;-62
2023/03/14 14:53:23;;;;;;;3.25;1.55;;;;;;;;;;5023241;28;20026;-63
2023/03/14 14:55:52;;;;;;;1.60;1.23;;;;;;;;;;5023145;28;20096;-64
2023/03/14 14:58:38;;;;;;;5.55;2.08;;;;;;;;;;5023182;28;20030;-63